createdAt,value
2023-01-30T00:00:06.334Z,6.40
2023-01-30T00:02:33.596Z,6.80
2023-01-30T00:05:00.771Z,6.53
2023-01-30T00:07:27.966Z,6.53
2023-01-30T00:09:55.188Z,6.40
2023-01-30T00:12:22.393Z,5.85
2023-01-30T00:14:49.495Z,6.15
2023-01-30T00:17:16.662Z,5.97
2023-01-30T00:19:43.794Z,5.28
2023-01-30T00:22:10.903Z,5.13
2023-01-30T00:24:38.225Z,6.10
2023-01-30T00:27:05.724Z,5.25
2023-01-30T00:29:32.849Z,4.60
2023-01-30T00:32:00.122Z,5.68
2023-01-30T00:34:27.290Z,4.97
2023-01-30T00:37:07.390Z,4.90
2023-01-30T00:39:34.890Z,5.45
2023-01-30T00:42:20.893Z,6.32
2023-01-30T00:45:06.940Z,4.90
2023-01-30T00:47:34.126Z,5.45
2023-01-30T00:50:01.268Z,5.60
2023-01-30T00:52:28.515Z,4.90
2023-01-30T00:54:55.640Z,4.78
2023-01-30T00:57:22.819Z,5.00
2023-01-30T00:59:50.522Z,5.25
2023-01-30T01:02:17.745Z,5.35
2023-01-30T01:04:44.934Z,5.45
2023-01-30T01:07:12.945Z,4.88
2023-01-30T04:56:07.129Z,8.55
2023-01-30T04:58:34.325Z,9.05
2023-01-30T05:01:21.658Z,8.35
2023-01-30T05:03:54.988Z,8.70
2023-01-30T05:06:22.793Z,8.13
2023-01-30T05:08:50.782Z,9.98
2023-01-30T05:11:17.975Z,8.63
2023-01-30T05:13:45.399Z,8.00
2023-01-30T05:16:12.877Z,8.65
2023-01-30T05:18:40.294Z,8.38
2023-01-30T05:21:13.841Z,9.07
2023-01-30T05:23:41.181Z,9.27
2023-01-30T05:26:08.659Z,9.25
2023-01-30T05:28:35.936Z,8.93
2023-01-30T05:31:03.325Z,9.40
2023-01-30T05:33:30.590Z,9.20
2023-01-30T05:35:57.807Z,7.85
2023-01-30T05:38:25.272Z,8.68
2023-01-30T05:41:02.539Z,8.13
2023-01-30T05:43:30.009Z,8.32
2023-01-30T05:45:57.966Z,8.18
2023-01-30T05:48:25.694Z,9.30
2023-01-30T05:50:53.374Z,9.70
2023-01-30T05:53:21.020Z,10.23
2023-01-30T05:55:55.204Z,9.98
2023-01-30T05:58:22.402Z,9.45
2023-01-30T06:00:49.521Z,10.90
2023-01-30T06:03:16.742Z,17.42
2023-01-30T06:05:43.878Z,35.78
2023-01-30T06:08:11.032Z,37.45
2023-01-30T06:10:38.237Z,37.75
2023-01-30T06:13:05.423Z,40.47
2023-01-30T06:15:33.499Z,33.75
2023-01-30T06:18:00.756Z,34.30
2023-01-30T06:20:27.938Z,26.58
2023-01-30T06:22:55.078Z,24.60
2023-01-30T06:25:22.272Z,18.80
2023-01-30T06:27:49.530Z,12.07
2023-01-30T06:30:16.840Z,11.25
2023-01-30T06:32:44.063Z,8.98
2023-01-30T06:35:11.164Z,8.90
2023-01-30T06:37:38.338Z,9.73
2023-01-30T06:40:05.735Z,9.10
2023-01-30T06:42:32.867Z,10.25
2023-01-30T06:44:59.975Z,10.55
2023-01-30T06:47:27.251Z,7.75
2023-01-30T06:49:54.370Z,9.48
2023-01-30T06:52:21.502Z,8.80
2023-01-30T06:54:48.720Z,8.27
2023-01-30T06:57:15.868Z,8.57
2023-01-30T06:59:42.981Z,8.63
2023-01-30T07:02:11.457Z,8.40
2023-01-30T07:04:38.598Z,8.93
2023-01-30T07:07:07.085Z,7.68
2023-01-30T07:09:34.442Z,8.73
2023-01-30T07:12:01.567Z,8.40
2023-01-30T07:14:28.692Z,8.68
2023-01-30T07:16:56.148Z,9.55
2023-01-30T07:19:23.330Z,9.40
2023-01-30T07:21:50.452Z,8.68
2023-01-30T07:24:17.693Z,8.75
2023-01-30T07:26:44.879Z,8.75
2023-01-30T07:29:12.009Z,9.55
2023-01-30T07:31:39.234Z,9.38
2023-01-30T07:34:06.395Z,9.40
2023-01-30T07:36:34.781Z,9.48
2023-01-30T07:39:01.986Z,9.40
2023-01-30T07:41:29.146Z,10.18
2023-01-30T07:43:56.327Z,9.60
2023-01-30T07:46:23.554Z,8.43
2023-01-30T07:48:50.662Z,9.70
2023-01-30T07:51:17.778Z,11.10
2023-01-30T07:53:44.989Z,11.73
2023-01-30T07:56:18.556Z,12.15
2023-01-30T07:58:45.764Z,9.85
2023-01-30T08:01:13.123Z,11.10
2023-01-30T08:03:40.631Z,11.30
2023-01-30T08:06:08.427Z,11.25
2023-01-30T08:08:35.851Z,12.40
2023-01-30T08:11:02.957Z,13.65
2023-01-30T08:13:30.127Z,10.48
2023-01-30T08:16:00.310Z,10.70
2023-01-30T08:18:29.089Z,9.98
2023-01-30T08:21:03.217Z,8.90
2023-01-30T08:23:30.356Z,7.93
2023-01-30T08:26:01.520Z,9.95
2023-01-30T08:28:29.454Z,12.02
2023-01-30T08:30:56.950Z,13.13
2023-01-30T08:33:25.047Z,12.90
2023-01-30T08:35:52.450Z,12.75
2023-01-30T08:38:19.772Z,10.60
2023-01-30T08:40:47.039Z,11.20
2023-01-30T08:43:14.205Z,10.30
2023-01-30T08:45:41.333Z,9.65
2023-01-30T08:48:08.629Z,9.50
2023-01-30T08:50:36.178Z,8.80
2023-01-30T08:53:07.225Z,9.38
2023-01-30T08:55:34.426Z,9.45
2023-01-30T08:58:01.679Z,8.52
2023-01-30T09:00:29.030Z,8.52
2023-01-30T09:02:56.848Z,9.75
2023-01-30T09:05:24.559Z,7.18
2023-01-30T09:07:51.977Z,7.07
2023-01-30T09:10:19.511Z,7.55
2023-01-30T09:12:46.947Z,8.05
2023-01-30T09:15:14.133Z,7.95
2023-01-30T09:17:41.326Z,7.75
2023-01-30T09:20:09.594Z,7.63
2023-01-30T09:22:36.744Z,7.78
2023-01-30T09:25:04.831Z,7.93
2023-01-30T09:27:32.545Z,7.85
2023-01-30T09:29:59.733Z,8.93
2023-01-30T09:32:26.871Z,8.52
2023-01-30T09:34:54.123Z,8.10
2023-01-30T09:37:21.254Z,7.20
2023-01-30T09:39:48.391Z,8.27
2023-01-30T09:42:25.134Z,9.43
2023-01-30T09:45:10.828Z,9.43
2023-01-30T09:47:47.143Z,8.48
2023-01-30T09:50:16.940Z,7.18
2023-01-30T09:53:03.108Z,7.82
2023-01-30T09:55:34.407Z,7.03
2023-01-30T09:58:01.873Z,8.73
2023-01-30T10:00:42.056Z,8.38
2023-01-30T10:03:09.273Z,8.77
2023-01-30T10:05:36.405Z,8.38
2023-01-30T10:08:23.891Z,9.02
2023-01-30T10:11:09.868Z,10.10
2023-01-30T10:13:55.954Z,10.13
2023-01-30T10:16:28.027Z,9.88
2023-01-30T10:18:59.638Z,9.23
2023-01-30T10:21:29.767Z,9.80
2023-01-30T10:23:56.855Z,9.15
2023-01-30T10:26:25.474Z,10.88
2023-01-30T10:29:06.323Z,9.32
2023-01-30T10:31:38.194Z,8.38
2023-01-30T10:34:12.901Z,9.23
2023-01-30T10:36:59.149Z,7.85
2023-01-30T10:39:40.912Z,8.43
2023-01-30T10:42:14.743Z,8.05
2023-01-30T10:44:42.812Z,9.43
2023-01-30T10:47:10.003Z,9.73
2023-01-30T10:49:41.839Z,9.35
2023-01-30T10:52:08.974Z,10.50
2023-01-30T10:54:39.068Z,9.77
2023-01-30T10:57:21.648Z,8.43
2023-01-30T11:00:02.356Z,9.25
2023-01-30T13:29:19.027Z,9.70
2023-01-30T13:31:51.586Z,9.52
2023-01-30T13:34:23.367Z,9.07
2023-01-30T13:36:52.984Z,8.63
2023-01-30T13:39:24.303Z,9.77
2023-01-30T13:41:54.048Z,9.23
2023-01-30T13:44:27.782Z,8.82
2023-01-30T13:46:56.251Z,9.82
2023-01-30T13:49:32.067Z,9.10
2023-01-30T13:52:03.448Z,8.75
2023-01-30T13:56:57.804Z,8.02
2023-01-30T13:59:41.931Z,8.70
2023-01-30T14:02:10.962Z,8.88
2023-01-30T14:04:40.995Z,8.82
2023-01-30T14:07:28.489Z,8.52
2023-01-30T14:10:04.798Z,9.18
2023-01-30T14:12:42.838Z,9.13
2023-01-30T14:15:19.132Z,9.48
2023-01-30T14:18:02.361Z,9.93
2023-01-30T14:20:31.233Z,9.23
2023-01-30T14:23:03.634Z,9.00
2023-01-30T14:25:30.803Z,8.95
2023-01-30T14:28:00.753Z,8.60
2023-01-30T14:30:41.102Z,8.50
2023-01-30T14:33:31.942Z,9.95
2023-01-30T14:35:59.141Z,7.85
2023-01-30T14:38:27.138Z,8.73
2023-01-30T14:41:00.381Z,8.80
2023-01-30T14:43:27.485Z,8.75
2023-01-30T14:45:58.684Z,7.90
2023-01-30T14:48:44.630Z,8.57
2023-01-30T14:51:12.045Z,7.80
2023-01-30T14:53:57.783Z,8.45
2023-01-30T14:56:34.091Z,9.27
2023-01-30T14:59:04.028Z,7.50
2023-01-30T15:01:50.058Z,9.18
2023-01-30T15:04:17.432Z,7.70
2023-01-30T15:06:44.679Z,9.07
2023-01-30T15:09:16.589Z,6.85
2023-01-30T15:11:48.624Z,7.55
2023-01-30T15:14:21.744Z,7.35
2023-01-30T15:17:11.233Z,7.95
2023-01-30T15:19:52.962Z,7.68
2023-01-30T15:22:38.987Z,8.43
2023-01-30T15:25:24.992Z,8.18
2023-01-30T15:27:58.288Z,8.50
2023-01-30T15:30:36.171Z,7.47
2023-01-30T15:33:22.822Z,8.27
2023-01-30T15:35:56.737Z,7.35
2023-01-30T15:38:25.553Z,7.00
2023-01-30T15:40:54.246Z,8.73
2023-01-30T15:43:40.022Z,8.07
2023-01-30T15:46:11.961Z,8.73
2023-01-30T15:49:16.426Z,7.95
2023-01-30T15:51:43.576Z,8.00
2023-01-30T15:54:11.673Z,7.80
2023-01-30T15:56:39.729Z,8.15
2023-01-30T15:59:07.161Z,6.90
2023-01-30T16:01:34.605Z,7.82
2023-01-30T16:04:07.916Z,7.93
2023-01-30T16:06:36.532Z,9.32
2023-01-30T16:09:08.369Z,10.50
2023-01-30T16:11:36.678Z,10.43
2023-01-30T16:14:03.900Z,9.20
2023-01-30T16:16:31.637Z,7.35
2023-01-30T16:19:01.094Z,9.23
2023-01-30T16:21:36.167Z,9.80
2023-01-30T16:24:06.144Z,7.10
2023-01-30T16:26:34.657Z,8.48
2023-01-30T16:29:05.271Z,8.52
2023-01-30T16:31:33.541Z,7.80
2023-01-30T16:34:01.156Z,6.88
2023-01-30T16:36:28.322Z,7.80
2023-01-30T16:38:56.002Z,7.35
2023-01-30T16:41:50.263Z,7.47
2023-01-30T16:44:17.359Z,8.40
2023-01-30T16:46:57.071Z,7.38
2023-01-30T16:49:27.282Z,7.07
2023-01-30T16:52:02.910Z,7.93
2023-01-30T16:54:31.087Z,7.55
2023-01-30T16:56:59.198Z,7.10
2023-01-30T16:59:30.706Z,7.13
2023-01-30T17:01:59.193Z,5.82
2023-01-30T17:04:29.165Z,6.90
2023-01-30T17:06:58.166Z,7.18
2023-01-30T17:09:41.687Z,7.03
2023-01-30T17:12:36.347Z,8.13
2023-01-30T17:15:12.690Z,7.25
2023-01-30T17:17:40.326Z,7.25
2023-01-30T17:20:07.753Z,6.95
2023-01-30T17:22:35.305Z,6.63
2023-01-30T17:25:06.977Z,6.93
2023-01-30T17:27:34.545Z,6.68
2023-01-30T17:30:01.681Z,7.72
2023-01-30T17:32:28.961Z,7.00
2023-01-30T17:34:56.414Z,8.65
2023-01-30T17:37:23.520Z,7.57
2023-01-30T17:39:50.763Z,7.45
2023-01-30T17:42:20.955Z,7.47
2023-01-30T17:44:48.525Z,7.03
2023-01-30T17:47:15.775Z,6.90
2023-01-30T17:49:42.941Z,6.72
2023-01-30T17:52:11.377Z,5.97
2023-01-30T17:54:38.562Z,7.38
2023-01-30T17:57:06.789Z,7.00
2023-01-30T17:59:34.100Z,6.68
2023-01-30T18:02:01.317Z,6.47
2023-01-30T18:04:28.504Z,6.82
2023-01-30T18:07:00.466Z,6.90
2023-01-30T18:09:27.904Z,7.57
2023-01-30T18:11:55.031Z,8.38
2023-01-30T18:14:22.944Z,7.80
2023-01-30T18:16:51.131Z,7.30
2023-01-30T18:19:18.791Z,8.43
2023-01-30T18:21:45.954Z,7.63
2023-01-30T18:24:14.551Z,7.07
2023-01-30T18:26:42.166Z,7.78
2023-01-30T18:29:09.872Z,8.23
2023-01-30T18:31:37.789Z,7.68
2023-01-30T18:34:05.459Z,8.70
2023-01-30T18:36:33.901Z,8.00
2023-01-30T18:39:01.300Z,8.27
2023-01-30T18:41:29.456Z,7.63
2023-01-30T18:44:01.043Z,8.07
2023-01-30T18:46:28.890Z,8.98
2023-01-30T18:48:56.771Z,8.65
2023-01-30T18:51:25.265Z,8.90
2023-01-30T18:53:53.497Z,8.52
2023-01-30T18:56:25.642Z,8.85
2023-01-30T18:58:54.399Z,8.48
2023-01-30T19:01:23.081Z,10.57
2023-01-30T19:03:50.297Z,9.48
2023-01-30T19:06:18.887Z,9.25
2023-01-30T19:08:46.341Z,8.60
2023-01-30T19:11:33.611Z,8.25
2023-01-30T19:14:00.736Z,8.43
2023-01-30T19:16:28.738Z,8.60
2023-01-30T19:18:56.255Z,7.82
2023-01-30T19:21:24.559Z,8.38
2023-01-30T19:23:52.463Z,8.65
2023-01-30T19:26:21.292Z,8.48
2023-01-30T19:28:48.566Z,8.13
2023-01-30T19:31:17.272Z,9.65
2023-01-30T19:33:45.539Z,9.48
2023-01-30T21:38:07.442Z,13.38
2023-01-30T21:40:53.344Z,14.10
2023-01-30T21:43:20.553Z,14.55
2023-01-30T21:45:47.751Z,14.88
2023-01-30T21:48:14.886Z,15.15
2023-01-30T21:50:42.117Z,14.38
2023-01-30T21:53:09.241Z,15.73
2023-01-30T21:55:36.601Z,15.57
2023-01-30T21:58:03.805Z,14.85
2023-01-30T22:00:30.952Z,15.60
2023-01-30T22:02:58.087Z,14.73
2023-01-30T22:05:25.254Z,15.57
2023-01-30T22:07:52.368Z,15.25
2023-01-30T22:10:19.564Z,15.60
2023-01-30T22:12:47.440Z,15.07
2023-01-30T22:15:14.613Z,15.68
2023-01-30T22:17:41.718Z,15.35
2023-01-30T22:20:10.074Z,16.05
2023-01-30T22:22:37.321Z,14.48
2023-01-30T22:25:04.493Z,16.27
2023-01-30T22:27:31.762Z,17.80
2023-01-30T22:29:58.884Z,16.75
2023-01-30T22:32:26.013Z,17.55
2023-01-30T22:34:53.191Z,16.77
2023-01-30T22:37:20.306Z,16.55
2023-01-30T22:39:47.454Z,16.05
2023-01-30T22:42:14.679Z,17.05
2023-01-30T22:44:41.846Z,17.85
2023-01-30T22:47:09.079Z,17.00
2023-01-30T22:49:36.299Z,16.83
2023-01-30T22:52:03.462Z,17.15
2023-01-30T22:54:30.587Z,16.23
2023-01-30T22:56:57.786Z,17.45
2023-01-30T22:59:24.984Z,17.73
2023-01-30T23:01:52.158Z,16.73
2023-01-30T23:04:21.100Z,16.90
2023-01-30T23:06:48.793Z,16.83
2023-01-30T23:09:17.730Z,16.77
2023-01-30T23:12:07.991Z,16.60
2023-01-30T23:14:35.723Z,16.63
2023-01-30T23:17:25.719Z,16.52
2023-01-30T23:19:53.203Z,18.13
2023-01-30T23:22:20.696Z,16.95
2023-01-30T23:24:48.778Z,17.30
2023-01-30T23:27:16.107Z,16.92
2023-01-30T23:29:43.263Z,16.95
2023-01-30T23:32:10.524Z,16.60
2023-01-30T23:34:37.769Z,15.80
2023-01-30T23:37:05.011Z,17.48
2023-01-30T23:39:32.177Z,18.35
2023-01-30T23:41:59.304Z,17.70
2023-01-30T23:44:26.399Z,17.65
2023-01-30T23:46:53.583Z,17.65
2023-01-30T23:49:20.783Z,18.25
2023-01-30T23:51:47.957Z,18.42
2023-01-30T23:54:15.186Z,18.00
2023-01-30T23:56:43.865Z,17.88
2023-01-30T23:59:12.061Z,17.75
